Nearby METAR Reports

 

KHOT - Hot Springs, Arkansas, USA
Distance from station: W 8mi, 14km
Updated: 07/08/2020 8:53am
Overcast
Overcast
 Wind from W
Wind: W 5 mph , 7 km/h
Temperature: 79°F , 26°C
Dew Point: 73°F , 23°C
Humidity: 84%
Barometer: 29.97 inHg , 1014.9 hPa
Clouds: Overcast
Visibility: 10 miles , 16 km
Cloud details: Partly cloudy 800 ft
Overcast 1400 ft
2020/07/08 13:53 KHOT 081353Z AUTO 26004KT 10SM SCT008 OVC014 26/23 A2997 RMK AO2 SLP142 T02610228
KMWT - Mount Ida, Arkansas, USA
Distance from station: W 36mi, 58km
Updated: 07/08/2020 8:53am
Few Clouds
Few Clouds
 Wind from calm
Wind: Calm
Temperature: 79°F , 26°C
Dew Point: 73°F , 23°C
Humidity: 84%
Barometer: 29.95 inHg , 1014.2 hPa
Clouds: Few Clouds
Visibility: 10 miles , 16 km
Cloud details: Few Clouds 500 ft
2020/07/08 13:53 KMWT 081353Z AUTO 00000KT 10SM FEW005 26/23 A2995 RMK AO2 SLP130 T02610233
 
KLIT - Little Rock, Arkansas, USA
Distance from station: ENE 45mi, 73km
Updated: 07/08/2020 8:53am
Overcast
Overcast
 Wind from SW
Wind: SW 3 mph , 6 km/h
Temperature: 73°F , 23°C
Dew Point: 72°F , 22°C
Humidity: 94%
Barometer: 29.97 inHg , 1014.9 hPa
Clouds: Overcast
Visibility: 10 miles , 16 km
Cloud details: Mostly cloudy 700 ft
Overcast 1500 ft
2020/07/08 13:53 KLIT 081353Z 23003KT 10SM BKN007 OVC015 23/22 A2997 RMK AO2 SLP147 T02330217
KLRF - Little Rock Afb, Arkansas, USA
Distance from station: NE 56mi, 89km
Updated: 07/08/2020 8:56am
Overcast
Overcast
 Wind from calm
Wind: Calm
Temperature: 77°F , 25°C
Dew Point: 73°F , 23°C
Humidity: 89%
Barometer: 29.96 inHg , 1014.6 hPa
Clouds: Overcast
Visibility: 10 miles , 16 km
Cloud details: Mostly cloudy 800 ft
Overcast 1700 ft
2020/07/08 13:56 KLRF 081356Z AUTO 00000KT 10SM BKN008 OVC017 25/23 A2996 RMK AO2 CIG 007 RWY07 SLP145 T02490229